Orlando, Florida
Current Conditions -  °F | °C
As of 8:53 PM on Friday 21 Nov 2014 (Local Time) from KORL Reporting Station
Overcast Overcast  
Wind Chill: 66°   Ceiling: 9000
Heat Index: 66°   Visibility: 10mi
Dew Point: 57°   Wind: 7mph
Humidity: 73%   Direction: 10°N
Pressure: 30.28"   Gusts: NA
Location:  28.54°N, 81.38°W
Report Text: KORL 220153Z 01006KT 10SM OVC090 19/14 A3028 RMK AO2 SLP257 T01890139
Loading
Personal Weather Stations






























Interactive Weather Map New forecast layout! Learn more

10-Day Weather Forecast

Advertisements
Track Severe Weather on mobile